Main page
METAR-TAF:

METAR-TAF

Airports :

Hale County Airport

Plainview, Texas, United States

latitude: 34-10-05N, longitude: 101-43-02W, elevation: 3372 ft

Current weather observation

The report was made 42 minutes ago, at 15:15 UTC
Wind 14 mph from the South
Temperature 75°F
Humidity 69%
Pressure 30.01 in. Hg
Visibility: 10 miles
Clear sky

METAR: KPVW 151515Z AUTO 18012KT 10SM CLR 24/18 A3001 RMK AO2 T02400177

Time: 10:57 (15:57 UTC)

Forecast

The report was made 4 hours and 37 minutes ago, at 11:20 UTC
Forecast valid from 15 at 12 UTC to 16 at 12 UTC
Wind 12 mph from the South/Southeast
Visibility: 6 miles
Broken clouds at a height of 10000 ft
From 15 at 1500 UTC
Wind 14 mph from the South with gusts up to 23 mph
Visibility: 6 miles
Broken clouds at a height of 25000 ft
From 16 at 0200 UTC
Wind 12 mph from the Southeast
Visibility: 6 miles
Broken clouds at a height of 25000 ft

TAF: KPVW 151120Z 1512/1612 16010KT P6SM BKN100 FM151500 19012G20KT P6SM BKN250 FM160200 14010KT P6SM BKN250

Weather observations and forecasts of more than 4000 airports (METAR and TAF reports).

The available stations are represented by yellow and red dots on the map.

Hover mouse over dot to see the name of the station.

Then click to see weather observations and forecasts.

To change the map : click on the green buttons with a black cross to zoom in, on the green button with a dash to zoom out, or on the green arrows for adjacent maps.


METAR-TAF: